Nearby METAR Reports

 

EGWC - Cosford Raf, United Kingdom
Distance from station: SSW 22km
Updated: 12/01/2021 12:50
NOT Current
Partly cloudy
Partly cloudy
 Wind from calm
Wind: Calm
Temperature: 6°C
Dew Point: 2°C
Humidity: 76%
Barometer: 1015 hPa
Clouds: Partly cloudy
Visibility: 6 miles , 10 km
Cloud details: Few Clouds 305 m
Partly cloudy 7620 m
2021/01/12 12:50 EGWC 121250Z 00000KT 9999 FEW010 SCT250 06/02 Q1015 RMK BLU
EGOS - Shawbury Raf, United Kingdom
Distance from station: W 37km
Updated: 27/01/2021 09:50
Mostly cloudy
Mostly cloudy
 Wind from W
Wind: W 5 mph , 7 km/h
Temperature: 6°C
Wind Chill: 4°C
Dew Point: 6°C
Humidity: 100%
Barometer: 1010 hPa
Clouds: Mostly cloudy
Visibility: 6 miles , 10 km
Cloud details: Few Clouds 610 m
Mostly cloudy 4877 m
Mostly cloudy 6096 m
2021/01/27 09:50 EGOS 270950Z 27004KT 9999 FEW020 BKN160 BKN200 06/06 Q1010 NOSIG RMK BLU BLU
 
EGBB - Birmingham Airpo, United Kingdom
Distance from station: SE 44km
Updated: 27/01/2021 10:20
Clear
Clear
 Wind from WSW
Wind: WSW 5 mph , 7 km/h
Temperature: 8°C
Wind Chill: 7°C
Dew Point: 7°C
Humidity: 93%
Barometer: 1011 hPa
Summary: Clear
Visibility: greater than 7 miles , 10 km
2021/01/27 10:20 EGBB 271020Z 25004KT CAVOK 08/07 Q1011
EGNX - East Midlands, United Kingdom
Distance from station: E 54km
Updated: 27/01/2021 09:50
Mostly cloudy
Mostly cloudy
 Wind from WSW
Wind: WSW 7 mph , 11 km/h
Temperature: 6°C
Wind Chill: 4°C
Dew Point: 6°C
Humidity: 100%
Barometer: 1010 hPa
Clouds: Mostly cloudy
Visibility: 6 miles , 10 km
Cloud details: Partly cloudy 396 m
Mostly cloudy 853 m
2021/01/27 09:50 EGNX 270950Z 25006KT 9999 SCT013 BKN028 06/06 Q1010
 
EGCC - Manchester Intl, United Kingdom
Distance from station: N 63km
Updated: 27/01/2021 10:20
Overcast
Overcast
 Wind from varies
Wind: varies 1 mph , 2 km/h
Temperature: 8°C
Dew Point: 7°C
Humidity: 93%
Barometer: 1011 hPa
Clouds: Overcast
Visibility: 6 miles , 10 km
Cloud details: Overcast 183 m
2021/01/27 10:20 EGCC 271020Z AUTO VRB01KT 9999 OVC006 08/07 Q1011
EGBE - Coventry Airport, United Kingdom
Distance from station: SE 65km
Updated: 18/07/2017 14:50
NOT Current
Clear
Clear
 Wind from E
Wind: E 16 mph , 26 km/h
Temperature: 27°C
Heat Index: 27°C
Dew Point: 14°C
Humidity: 45%
Barometer: 1015 hPa
Summary: Clear
Visibility: greater than 7 miles , 10 km
2017/07/18 13:50 EGBE 181350Z 10014KT 060V120 CAVOK 27/14 Q1015
 
EGNR - Hawarden (aut), United Kingdom
Distance from station: NW 70km
Updated: 27/01/2021 10:20
Partly cloudy
Partly cloudy
 Wind from SW
Wind: SW 5 mph , 7 km/h
Temperature: 8°C
Wind Chill: 7°C
Dew Point: 6°C
Humidity: 87%
Barometer: 1011 hPa
Clouds: Partly cloudy
Visibility: 6 miles , 10 km
Cloud details: Few Clouds 427 m
Partly cloudy 732 m
2021/01/27 10:20 EGNR 271020Z 23004KT 9999 FEW014 SCT024 08/06 Q1011
EGGP - Liverpool Airpor, United Kingdom
Distance from station: NW 76km
Updated: 27/01/2021 10:20
Overcast
Overcast
 Wind from WNW
Wind: WNW 6 mph , 9 km/h
Temperature: 9°C
Wind Chill: 7°C
Dew Point: 8°C
Humidity: 94%
Barometer: 1011 hPa
Clouds: Overcast
Visibility: 6 miles , 10 km
Cloud details: Partly cloudy 396 m
Overcast 518 m
2021/01/27 10:20 EGGP 271020Z AUTO 29005KT 9999 SCT013/// OVC017/// 09/08 Q1011